createdAt,value
2018-05-10T00:01:46.266Z,17.37
2018-05-10T00:04:13.725Z,17.20
2018-05-10T00:06:42.044Z,16.30
2018-05-10T00:09:09.594Z,16.23
2018-05-10T00:11:37.103Z,15.87
2018-05-10T00:14:04.755Z,15.40
2018-05-10T00:16:32.226Z,14.97
2018-05-10T00:19:01.381Z,14.50
2018-05-10T00:21:28.828Z,13.77
2018-05-10T00:23:56.424Z,13.87
2018-05-10T00:26:23.881Z,13.37
2018-05-10T00:28:51.344Z,11.87
2018-05-10T00:31:18.862Z,11.60
2018-05-10T00:33:46.322Z,11.27
2018-05-10T00:36:13.787Z,10.30
2018-05-10T00:38:41.351Z,10.57
2018-05-10T00:41:08.819Z,10.10
2018-05-10T00:43:36.356Z,9.87
2018-05-10T00:46:03.921Z,9.23
2018-05-10T00:48:31.464Z,9.87
2018-05-10T00:50:58.915Z,8.50
2018-05-10T00:53:26.495Z,9.57
2018-05-10T00:55:54.160Z,9.37
2018-05-10T00:58:21.634Z,9.57
2018-05-10T01:00:49.094Z,9.07
2018-05-10T01:03:16.757Z,9.40
2018-05-10T01:05:44.309Z,9.80
2018-05-10T01:08:11.786Z,10.10
2018-05-10T01:10:39.302Z,10.30
2018-05-10T01:13:06.798Z,9.87
2018-05-10T01:15:35.033Z,10.07
2018-05-10T01:18:02.711Z,10.50
2018-05-10T01:20:30.255Z,10.40
2018-05-10T01:22:57.707Z,10.23
2018-05-10T01:25:25.161Z,11.20
2018-05-10T01:27:52.601Z,10.80
2018-05-10T01:30:20.148Z,11.47
2018-05-10T01:32:47.619Z,11.53
2018-05-10T01:35:26.986Z,12.77
2018-05-10T01:37:54.502Z,11.43
2018-05-10T01:40:22.033Z,12.10
2018-05-10T01:42:50.258Z,12.37
2018-05-10T01:45:17.720Z,12.10
2018-05-10T01:47:45.178Z,13.47
2018-05-10T01:50:12.693Z,14.33
2018-05-10T01:52:40.231Z,14.70
2018-05-10T01:55:08.664Z,15.70
2018-05-10T01:57:36.122Z,15.80
2018-05-10T02:00:03.588Z,15.73
2018-05-10T02:02:31.124Z,15.80
2018-05-10T02:04:58.590Z,15.57
2018-05-10T02:07:26.180Z,15.27
2018-05-10T02:09:55.292Z,15.33
2018-05-10T02:12:22.728Z,13.73
2018-05-10T02:14:50.461Z,14.63
2018-05-10T02:17:18.025Z,14.23
2018-05-10T02:19:45.502Z,12.70
2018-05-10T02:22:13.117Z,12.83
2018-05-10T02:24:40.562Z,11.83
2018-05-10T02:27:08.017Z,11.40
2018-05-10T02:29:35.461Z,10.63
2018-05-10T02:32:03.799Z,10.97
2018-05-10T02:34:31.446Z,9.73
2018-05-10T02:36:58.889Z,9.27
2018-05-10T02:39:26.379Z,8.97
2018-05-10T02:41:53.911Z,8.07
2018-05-10T02:44:21.356Z,8.00
2018-05-10T02:46:48.861Z,7.87
2018-05-10T02:49:16.418Z,7.93
2018-05-10T02:51:45.492Z,7.87
2018-05-10T02:54:12.951Z,8.10
2018-05-10T02:56:40.615Z,7.90
2018-05-10T02:59:08.086Z,7.93
2018-05-10T03:01:36.312Z,7.37
2018-05-10T03:04:03.771Z,7.57
2018-05-10T03:06:31.386Z,8.10
2018-05-10T03:08:59.717Z,7.50
2018-05-10T03:11:27.263Z,6.90
2018-05-10T03:13:54.840Z,8.10
2018-05-10T03:16:22.306Z,8.20
2018-05-10T03:18:49.983Z,8.23
2018-05-10T03:21:17.510Z,9.03
2018-05-10T03:23:44.956Z,9.60
2018-05-10T03:26:12.420Z,8.97
2018-05-10T03:28:40.011Z,9.17
2018-05-10T03:31:07.557Z,8.50
2018-05-10T03:33:35.007Z,8.93
2018-05-10T03:36:02.556Z,9.53
2018-05-10T03:38:30.009Z,9.13
2018-05-10T03:40:57.672Z,9.80
2018-05-10T03:43:25.149Z,9.13
2018-05-10T03:45:52.713Z,9.93
2018-05-10T03:48:20.157Z,9.90
2018-05-10T03:50:47.721Z,9.93
2018-05-10T03:53:15.237Z,10.50
2018-05-10T03:55:42.909Z,9.97
2018-05-10T03:58:10.360Z,10.37
2018-05-10T04:00:37.884Z,10.43
2018-05-10T04:06:33.404Z,10.77
2018-05-10T04:09:13.644Z,10.80
2018-05-10T04:11:42.602Z,11.20
2018-05-10T04:14:10.051Z,11.27
2018-05-10T04:16:37.597Z,11.53
2018-05-10T04:19:05.051Z,11.93
2018-05-10T04:21:32.757Z,11.40
2018-05-10T04:24:00.286Z,10.37
2018-05-10T04:26:27.874Z,10.17
2018-05-10T04:28:55.330Z,10.43
2018-05-10T04:31:22.780Z,11.13
2018-05-10T04:33:50.246Z,10.53
2018-05-10T04:36:17.786Z,10.00
2018-05-10T04:38:45.352Z,10.47
2018-05-10T04:41:12.885Z,12.13
2018-05-10T04:43:40.346Z,11.73
2018-05-10T04:46:07.798Z,12.50
2018-05-10T04:48:35.249Z,12.77
2018-05-10T04:51:02.688Z,12.50
2018-05-10T04:53:30.183Z,13.00
2018-05-10T04:55:57.624Z,12.83
2018-05-10T04:58:25.205Z,13.33
2018-05-10T05:00:52.659Z,12.30
2018-05-10T05:03:20.366Z,12.60
2018-05-10T05:05:47.869Z,13.33
2018-05-10T05:08:15.316Z,12.97
2018-05-10T05:10:42.852Z,13.93
2018-05-10T05:13:10.360Z,15.80
2018-05-10T05:15:37.899Z,15.33
2018-05-10T05:18:05.366Z,14.77
2018-05-10T05:20:32.947Z,16.00
2018-05-10T05:23:01.915Z,15.30
2018-05-10T05:25:29.483Z,16.33
2018-05-10T05:27:57.012Z,15.23
2018-05-10T05:30:24.535Z,15.00
2018-05-10T05:32:52.754Z,15.63
2018-05-10T05:35:20.320Z,14.10
2018-05-10T05:37:47.794Z,14.13
2018-05-10T05:40:15.263Z,12.37
2018-05-10T05:42:42.917Z,10.97
2018-05-10T05:45:10.375Z,9.50
2018-05-10T05:47:37.902Z,9.57
2018-05-10T05:50:05.414Z,9.83
2018-05-10T05:52:33.737Z,8.97
2018-05-10T05:55:01.295Z,7.83
2018-05-10T05:57:28.686Z,7.53
2018-05-10T05:59:57.038Z,7.00
2018-05-10T06:02:26.175Z,6.10
2018-05-10T06:04:54.406Z,5.53
2018-05-10T06:07:21.859Z,4.63
2018-05-10T06:09:49.410Z,4.50
2018-05-10T06:12:18.691Z,3.80
2018-05-10T06:14:46.181Z,4.30
2018-05-10T06:17:13.843Z,4.10
2018-05-10T06:19:41.317Z,5.47
2018-05-10T06:22:10.290Z,4.20
2018-05-10T06:24:37.754Z,4.83
2018-05-10T06:27:05.216Z,4.77
2018-05-10T06:29:32.956Z,5.23
2018-05-10T06:32:00.532Z,5.47
2018-05-10T06:34:28.099Z,7.00
2018-05-10T06:36:55.647Z,6.53
2018-05-10T06:39:23.200Z,5.37
2018-05-10T06:41:50.739Z,5.80
2018-05-10T06:44:18.196Z,5.90
2018-05-10T06:46:45.824Z,5.57
2018-05-10T06:49:13.217Z,5.33
2018-05-10T06:51:40.901Z,4.47
2018-05-10T06:54:08.418Z,5.03
2018-05-10T06:56:35.959Z,4.93
2018-05-10T06:59:03.481Z,4.93
2018-05-10T07:01:31.018Z,4.20
2018-05-10T07:03:58.478Z,4.03
2018-05-10T07:06:25.928Z,4.33
2018-05-10T07:08:53.581Z,4.00
2018-05-10T07:11:21.263Z,4.10
2018-05-10T07:13:48.734Z,4.20
2018-05-10T07:16:16.267Z,4.33
2018-05-10T07:18:43.937Z,3.80
2018-05-10T07:21:11.548Z,3.80
2018-05-10T07:23:40.794Z,3.90
2018-05-10T07:26:08.491Z,3.40
2018-05-10T07:28:37.313Z,3.80
2018-05-10T07:31:04.734Z,3.60
2018-05-10T07:33:32.348Z,4.07
2018-05-10T07:36:00.017Z,3.53
2018-05-10T07:38:28.069Z,3.80
2018-05-10T07:40:55.541Z,4.23
2018-05-10T07:43:23.015Z,3.73
2018-05-10T07:45:50.528Z,3.90
2018-05-10T07:48:17.983Z,3.73
2018-05-10T07:50:45.819Z,4.50
2018-05-10T07:53:13.993Z,4.43
2018-05-10T07:55:43.294Z,4.40
2018-05-10T07:58:10.741Z,5.07
2018-05-10T08:00:39.051Z,4.97
2018-05-10T08:03:06.503Z,4.80
2018-05-10T08:05:34.218Z,5.20
2018-05-10T08:08:01.758Z,4.50
2018-05-10T08:10:29.306Z,5.80
2018-05-10T08:12:56.987Z,4.73
2018-05-10T08:15:24.450Z,6.17
2018-05-10T08:17:52.029Z,5.17
2018-05-10T08:20:20.319Z,4.63
2018-05-10T08:22:47.820Z,5.10
2018-05-10T08:25:15.476Z,4.53
2018-05-10T08:27:47.029Z,5.27
2018-05-10T08:30:14.500Z,4.67
2018-05-10T08:32:41.957Z,4.97
2018-05-10T08:35:09.407Z,5.20
2018-05-10T08:37:37.054Z,5.00
2018-05-10T08:40:04.519Z,4.73
2018-05-10T08:42:31.991Z,5.17
2018-05-10T08:44:59.693Z,4.90
2018-05-10T08:47:27.178Z,4.67
2018-05-10T08:49:54.985Z,4.53
2018-05-10T08:52:22.506Z,4.83
2018-05-10T08:54:50.091Z,5.27
2018-05-10T08:57:17.610Z,5.13
2018-05-10T08:59:45.151Z,5.13
2018-05-10T09:02:12.720Z,5.50
2018-05-10T09:04:40.194Z,6.27
2018-05-10T09:07:07.636Z,6.83
2018-05-10T09:09:35.294Z,7.03
2018-05-10T09:12:02.877Z,7.03
2018-05-10T09:14:30.333Z,7.70
2018-05-10T09:16:57.896Z,8.30
2018-05-10T09:19:25.414Z,8.20
2018-05-10T09:21:52.858Z,10.70
2018-05-10T09:24:21.067Z,9.30
2018-05-10T09:26:48.524Z,8.33
2018-05-10T09:29:16.108Z,9.07
2018-05-10T09:31:43.658Z,10.03
2018-05-10T09:34:11.107Z,10.63
2018-05-10T09:36:38.681Z,10.63
2018-05-10T09:39:06.135Z,12.67
2018-05-10T09:41:33.805Z,12.17
2018-05-10T09:44:01.325Z,11.87
2018-05-10T09:46:29.193Z,12.10
2018-05-10T09:48:56.783Z,11.93
2018-05-10T09:51:25.799Z,13.20
2018-05-10T09:53:54.048Z,14.43
2018-05-10T09:56:21.615Z,15.37
2018-05-10T09:58:49.264Z,15.63
2018-05-10T10:01:16.730Z,16.67
2018-05-10T10:03:44.379Z,16.40
2018-05-10T10:06:11.951Z,16.63
2018-05-10T10:08:39.498Z,16.73
2018-05-10T10:11:07.167Z,17.37
2018-05-10T10:13:36.136Z,17.33
2018-05-10T10:16:03.711Z,13.30
2018-05-10T10:18:31.353Z,13.70
2018-05-10T10:20:59.053Z,15.43
2018-05-10T10:23:26.553Z,15.13
2018-05-10T10:25:54.011Z,16.07
2018-05-10T10:28:21.807Z,16.20
2018-05-10T10:30:49.300Z,16.47
2018-05-10T10:33:16.796Z,17.57
2018-05-10T10:35:44.252Z,16.53
2018-05-10T10:38:11.927Z,16.03
2018-05-10T10:40:39.503Z,17.27
2018-05-10T10:43:07.203Z,16.10
2018-05-10T10:45:34.712Z,16.33
2018-05-10T10:48:02.175Z,14.87
2018-05-10T10:50:29.817Z,11.00
2018-05-10T10:52:58.320Z,8.60
2018-05-10T10:55:26.443Z,8.00
2018-05-10T10:57:54.078Z,8.07
2018-05-10T11:00:22.635Z,7.40
2018-05-10T11:02:51.704Z,6.33
2018-05-10T11:05:19.268Z,6.57
2018-05-10T11:07:47.133Z,7.00
2018-05-10T11:10:14.716Z,7.47
2018-05-10T11:12:43.665Z,7.17
2018-05-10T11:15:11.256Z,8.30
2018-05-10T11:17:38.906Z,7.70
2018-05-10T11:20:07.126Z,8.07
2018-05-10T11:22:35.336Z,7.90
2018-05-10T11:25:02.784Z,7.77
2018-05-10T11:27:30.279Z,8.20
2018-05-10T11:29:57.784Z,8.13
2018-05-10T11:32:25.338Z,7.40
2018-05-10T11:34:52.848Z,7.60
2018-05-10T11:37:20.402Z,7.00
2018-05-10T11:39:47.978Z,8.57
2018-05-10T11:42:15.509Z,6.57
2018-05-10T11:44:42.970Z,6.30
2018-05-10T11:47:10.837Z,6.20
2018-05-10T11:49:38.296Z,6.40
2018-05-10T11:52:05.968Z,8.93
2018-05-10T11:54:33.539Z,6.93
2018-05-10T11:57:01.066Z,7.23
2018-05-10T11:59:28.760Z,7.13
2018-05-10T12:01:56.212Z,8.27
2018-05-10T12:04:26.135Z,8.70
2018-05-10T12:06:53.961Z,10.90
2018-05-10T12:09:21.414Z,12.13
2018-05-10T12:11:49.130Z,11.13
2018-05-10T12:14:16.659Z,12.00
2018-05-10T12:16:44.206Z,11.60
2018-05-10T12:19:11.666Z,11.50
2018-05-10T12:21:39.466Z,11.73
2018-05-10T12:24:06.981Z,13.00
2018-05-10T12:26:34.473Z,12.30
2018-05-10T12:29:03.196Z,11.27
2018-05-10T12:31:30.658Z,10.87
2018-05-10T12:33:58.106Z,11.20
2018-05-10T12:36:25.700Z,13.37
2018-05-10T12:38:53.369Z,16.00
2018-05-10T12:41:20.836Z,19.57
2018-05-10T12:43:48.354Z,20.50
2018-05-10T12:46:15.808Z,20.03
2018-05-10T12:48:43.368Z,20.13
2018-05-10T12:51:11.659Z,20.40
2018-05-10T12:53:40.222Z,20.27
2018-05-10T12:56:07.683Z,22.27
2018-05-10T12:58:35.570Z,21.23
2018-05-10T13:01:03.022Z,21.20
2018-05-10T13:03:30.592Z,22.13
2018-05-10T13:05:58.069Z,20.87
2018-05-10T13:08:25.725Z,19.03
2018-05-10T13:10:55.090Z,18.07
2018-05-10T13:13:23.948Z,18.07
2018-05-10T13:15:51.422Z,15.17
2018-05-10T13:18:19.058Z,16.80
2018-05-10T13:20:48.155Z,12.87
2018-05-10T13:23:16.597Z,10.20
2018-05-10T13:25:44.040Z,8.57
2018-05-10T13:28:11.520Z,8.50
2018-05-10T13:30:42.095Z,7.47
2018-05-10T13:33:10.380Z,7.20
2018-05-10T13:35:37.956Z,7.37
2018-05-10T13:38:05.389Z,6.73
2018-05-10T13:40:32.864Z,5.63
2018-05-10T13:43:00.442Z,5.17
2018-05-10T13:45:29.078Z,4.83
2018-05-10T13:47:56.877Z,5.27
2018-05-10T13:50:24.627Z,7.27
2018-05-10T13:52:54.347Z,4.53
2018-05-10T13:55:22.471Z,4.50
2018-05-10T13:57:49.960Z,3.50
2018-05-10T14:00:17.421Z,3.67
2018-05-10T14:02:44.960Z,3.10
2018-05-10T14:05:12.617Z,8.77
2018-05-10T14:07:40.968Z,6.03
2018-05-10T14:10:09.184Z,2.70
2018-05-10T14:12:36.884Z,2.30
2018-05-10T14:15:05.232Z,2.10
2018-05-10T14:17:32.768Z,2.97
2018-05-10T14:20:01.308Z,2.80
2018-05-10T14:22:31.667Z,3.17
2018-05-10T14:24:59.375Z,2.40
2018-05-10T14:27:27.439Z,2.00
2018-05-10T14:29:56.797Z,2.23
2018-05-10T14:32:24.301Z,2.40
2018-05-10T14:34:52.698Z,2.17
2018-05-10T14:37:20.426Z,1.57
2018-05-10T14:39:47.931Z,2.80
2018-05-10T14:42:16.148Z,2.47
2018-05-10T14:44:43.625Z,2.30
2018-05-10T14:47:12.003Z,1.90
2018-05-10T14:49:39.670Z,1.80
2018-05-10T14:52:08.634Z,1.70
2018-05-10T14:54:36.102Z,1.80
2018-05-10T14:57:03.667Z,1.73
2018-05-10T14:59:31.318Z,1.70
2018-05-10T15:01:58.994Z,4.03
2018-05-10T15:04:26.514Z,1.70
2018-05-10T15:06:54.107Z,1.60
2018-05-10T15:09:21.771Z,1.97
2018-05-10T15:11:49.289Z,2.03
2018-05-10T15:14:16.881Z,1.80
2018-05-10T15:16:44.408Z,2.07
2018-05-10T15:19:11.984Z,1.60
2018-05-10T15:21:39.534Z,1.20
2018-05-10T15:24:06.983Z,1.33
2018-05-10T15:26:34.432Z,1.30
2018-05-10T15:29:02.037Z,1.53
2018-05-10T15:31:29.488Z,1.67
2018-05-10T15:33:57.002Z,2.20
2018-05-10T15:36:24.481Z,2.53
2018-05-10T15:38:51.994Z,2.27
2018-05-10T15:41:20.339Z,2.23
2018-05-10T15:43:47.996Z,2.67
2018-05-10T15:46:15.656Z,3.60
2018-05-10T15:48:43.312Z,3.83
2018-05-10T15:51:10.971Z,3.50
2018-05-10T15:53:38.427Z,3.93
2018-05-10T15:56:05.963Z,4.57
2018-05-10T15:58:33.555Z,5.20
2018-05-10T16:01:01.040Z,4.93
2018-05-10T16:03:28.666Z,4.57
2018-05-10T16:05:56.260Z,4.47
2018-05-10T16:08:24.475Z,4.30
2018-05-10T16:10:51.939Z,4.50
2018-05-10T16:13:19.391Z,4.60
2018-05-10T16:15:46.983Z,4.23
2018-05-10T16:18:14.498Z,4.20
2018-05-10T16:20:42.100Z,4.20
2018-05-10T16:23:11.072Z,4.20
2018-05-10T16:25:38.527Z,4.13
2018-05-10T16:28:05.984Z,4.63
2018-05-10T16:30:33.532Z,3.73
2018-05-10T16:33:01.049Z,3.77
2018-05-10T16:35:28.658Z,3.30
2018-05-10T16:37:56.331Z,3.80
2018-05-10T16:40:25.081Z,3.27
2018-05-10T16:42:52.569Z,3.30
2018-05-10T16:45:20.103Z,3.40
2018-05-10T16:47:47.547Z,2.70
2018-05-10T16:50:15.034Z,2.67
2018-05-10T16:52:42.481Z,2.30
2018-05-10T16:55:09.964Z,2.40
2018-05-10T16:57:37.444Z,2.60
2018-05-10T17:00:05.025Z,2.57
2018-05-10T17:02:32.456Z,2.30
2018-05-10T17:05:00.944Z,2.10
2018-05-10T17:07:29.396Z,2.53
2018-05-10T17:09:57.072Z,2.60
2018-05-10T17:12:24.540Z,2.70
2018-05-10T17:14:52.740Z,3.20
2018-05-10T17:17:20.233Z,3.53
2018-05-10T17:19:47.787Z,2.70
2018-05-10T17:22:15.334Z,2.97
2018-05-10T17:24:42.778Z,2.70
2018-05-10T17:27:10.245Z,2.57
2018-05-10T17:29:38.089Z,3.60
2018-05-10T17:32:05.656Z,2.10
2018-05-10T17:34:33.453Z,2.00
2018-05-10T17:37:00.956Z,2.17
2018-05-10T17:39:28.679Z,2.10
2018-05-10T17:41:56.336Z,1.80
2018-05-10T17:44:23.890Z,2.07
2018-05-10T17:46:51.479Z,2.37
2018-05-10T17:49:19.146Z,2.30
2018-05-10T17:51:46.783Z,2.13
2018-05-10T17:54:14.361Z,2.03
2018-05-10T17:56:42.775Z,2.30
2018-05-10T17:59:10.388Z,2.37
2018-05-10T18:01:38.017Z,1.90
2018-05-10T18:04:05.469Z,1.63
2018-05-10T18:06:33.097Z,1.70
2018-05-10T18:09:00.728Z,1.73
2018-05-10T18:11:28.328Z,2.00
2018-05-10T18:13:56.049Z,1.40
2018-05-10T18:16:24.185Z,1.83
2018-05-10T18:18:52.188Z,1.57
2018-05-10T18:21:19.869Z,1.83
2018-05-10T18:23:48.443Z,1.80
2018-05-10T18:26:15.945Z,1.80
2018-05-10T18:28:43.552Z,1.90
2018-05-10T18:31:11.174Z,2.13
2018-05-10T18:33:38.719Z,2.07
2018-05-10T18:36:06.191Z,2.63
2018-05-10T18:38:33.717Z,1.77
2018-05-10T18:41:01.852Z,2.00
2018-05-10T18:43:29.361Z,1.83
2018-05-10T18:45:57.461Z,1.80
2018-05-10T18:48:25.490Z,1.60
2018-05-10T18:50:52.960Z,1.87
2018-05-10T18:53:21.022Z,1.90
2018-05-10T18:55:48.478Z,1.97
2018-05-10T18:58:15.934Z,1.90
2018-05-10T19:00:43.826Z,2.57
2018-05-10T19:03:11.483Z,1.90
2018-05-10T19:05:39.744Z,1.80
2018-05-10T19:08:07.189Z,2.00
2018-05-10T19:10:37.717Z,2.10
2018-05-10T19:13:05.174Z,1.93
2018-05-10T19:15:32.825Z,1.97
2018-05-10T19:18:00.434Z,2.13
2018-05-10T19:20:28.121Z,2.47
2018-05-10T19:22:56.408Z,2.47
2018-05-10T19:25:24.030Z,2.57
2018-05-10T19:27:51.665Z,2.30
2018-05-10T19:30:19.106Z,2.27
2018-05-10T19:32:46.635Z,2.50
2018-05-10T19:35:14.151Z,2.20
2018-05-10T19:37:42.210Z,2.33
2018-05-10T19:40:09.995Z,2.27
2018-05-10T19:42:37.779Z,2.83
2018-05-10T19:45:05.342Z,2.67
2018-05-10T19:47:32.960Z,2.13
2018-05-10T19:50:00.426Z,3.33
2018-05-10T19:52:28.135Z,4.33
2018-05-10T19:54:55.640Z,14.20
2018-05-10T19:57:23.099Z,8.77
2018-05-10T19:59:50.865Z,9.80
2018-05-10T20:02:18.340Z,5.03
2018-05-10T20:04:45.798Z,6.40
2018-05-10T20:07:13.437Z,9.80
2018-05-10T20:09:40.984Z,8.97
2018-05-10T20:12:08.540Z,8.10
2018-05-10T20:14:36.212Z,6.97
2018-05-10T20:17:03.826Z,6.90
2018-05-10T20:19:32.261Z,7.30
2018-05-10T20:21:59.819Z,4.60
2018-05-10T20:24:27.484Z,3.30
2018-05-10T20:26:54.961Z,4.77
2018-05-10T20:29:22.473Z,3.03
2018-05-10T20:31:50.041Z,2.80
2018-05-10T20:34:17.534Z,3.03
2018-05-10T20:36:48.405Z,3.50
2018-05-10T20:39:17.463Z,3.07
2018-05-10T20:41:45.821Z,2.90
2018-05-10T20:44:13.338Z,3.67
2018-05-10T20:46:41.014Z,3.03
2018-05-10T20:49:08.682Z,2.80
2018-05-10T20:51:37.172Z,2.80
2018-05-10T20:54:06.010Z,2.50
2018-05-10T20:56:33.471Z,2.80
2018-05-10T20:59:01.033Z,2.80
2018-05-10T21:01:28.537Z,2.90
2018-05-10T21:03:57.632Z,3.30
2018-05-10T21:06:25.127Z,2.50
2018-05-10T21:08:53.434Z,2.60
2018-05-10T21:11:21.201Z,3.00
2018-05-10T21:13:48.798Z,3.00
2018-05-10T21:16:16.513Z,2.70
2018-05-10T21:18:44.100Z,2.90
2018-05-10T21:21:11.552Z,3.20
2018-05-10T21:23:39.115Z,3.27
2018-05-10T21:26:06.843Z,2.90
2018-05-10T21:28:34.246Z,2.80
2018-05-10T21:31:01.967Z,3.17
2018-05-10T21:33:29.464Z,3.50
2018-05-10T21:35:56.896Z,3.57
2018-05-10T21:38:24.455Z,3.30
2018-05-10T21:40:52.339Z,3.47
2018-05-10T21:43:20.077Z,3.20
2018-05-10T21:45:47.718Z,3.97
2018-05-10T21:48:15.230Z,3.13
2018-05-10T21:50:43.355Z,3.70
2018-05-10T21:53:10.991Z,3.10
2018-05-10T21:55:38.515Z,3.30
2018-05-10T21:58:05.971Z,3.50
2018-05-10T22:00:33.497Z,3.33
2018-05-10T22:03:01.104Z,3.37
2018-05-10T22:05:28.644Z,3.70
2018-05-10T22:07:56.237Z,3.00
2018-05-10T22:10:23.925Z,2.80
2018-05-10T22:12:51.774Z,3.90
2018-05-10T22:15:19.984Z,3.13
2018-05-10T22:17:47.702Z,3.20
2018-05-10T22:20:15.423Z,2.97
2018-05-10T22:22:43.823Z,2.70
2018-05-10T22:25:11.729Z,3.17
2018-05-10T22:27:39.229Z,3.20
2018-05-10T22:30:08.124Z,3.60
2018-05-10T22:32:36.573Z,3.40
2018-05-10T22:35:04.113Z,3.37
2018-05-10T22:37:31.646Z,3.53
2018-05-10T22:39:59.089Z,3.37
2018-05-10T22:42:27.640Z,3.07
2018-05-10T22:44:56.173Z,3.10
2018-05-10T22:47:23.684Z,3.17
2018-05-10T22:49:51.216Z,2.63
2018-05-10T22:52:18.671Z,3.47
2018-05-10T22:54:46.174Z,3.50
2018-05-10T22:57:13.700Z,3.20
2018-05-10T22:59:41.233Z,3.80
2018-05-10T23:02:09.582Z,3.57
2018-05-10T23:04:37.939Z,2.97
2018-05-10T23:07:05.376Z,3.77
2018-05-10T23:09:33.036Z,3.10
2018-05-10T23:12:00.480Z,3.00
2018-05-10T23:14:27.952Z,2.73
2018-05-10T23:16:55.421Z,3.08
2018-05-10T23:19:22.943Z,3.43
2018-05-10T23:21:50.414Z,3.67
2018-05-10T23:24:17.861Z,2.80
2018-05-10T23:26:45.323Z,3.47
2018-05-10T23:29:12.903Z,3.93
2018-05-10T23:31:41.981Z,3.30
2018-05-10T23:34:09.523Z,3.97
2018-05-10T23:36:37.115Z,3.67
2018-05-10T23:39:04.566Z,3.77
2018-05-10T23:41:33.648Z,4.23
2018-05-10T23:44:01.330Z,3.30
2018-05-10T23:46:28.781Z,3.60
2018-05-10T23:48:56.222Z,4.10
2018-05-10T23:51:23.697Z,3.50
2018-05-10T23:53:51.143Z,4.10
2018-05-10T23:56:18.802Z,3.37
2018-05-10T23:58:46.329Z,3.70
